Downsville, Wisconsin
Current Conditions -  °F | °C
As of 2:55 PM on Thursday 27 Nov 2014 (Local Time) from KLUM Reporting Station
Clear Clear  
Wind Chill:   Ceiling: Unl
Heat Index: 11°   Visibility: 10mi
Dew Point: -4°   Wind: 6mph
Humidity: 50%   Direction: 260°W
Pressure: 30.44"   Gusts: NA
Location:  44.78°N, 91.94°W
Report Text: KLUM 272055Z AUTO 26005KT 10SM CLR M12/M20 A3044 RMK AO2 T11161201
Loading
Personal Weather Stations






























Interactive Weather Map New forecast layout! Learn more

10-Day Weather Forecast

Advertisements
Track Severe Weather on mobile